Time;durP1;ratioP1;P1;durP2;ratioP2;P2;SDS_P1;SDS_P2;PMS_P1;PMS_P2;Temp;Humidity;BMP_temperature;BMP_pressure;BME280_temperature;BME280_humidity;BME280_pressure;Samples;Min_cycle;Max_cycle;Signal;HPM_P1;HPM_P2
2023/10/18 00:01:29;;;;;;;13.20;10.52;;;8.60;99.90;;;;;;5020798;28;20453;-87
2023/10/18 00:03:56;;;;;;;12.45;10.02;;;8.60;99.90;;;;;;5037716;28;20067;-89
2023/10/18 00:06:23;;;;;;;12.20;10.75;;;8.50;99.90;;;;;;5037428;28;20124;-89
2023/10/18 00:08:57;;;;;;;12.13;10.07;;;8.50;99.90;;;;;;5036933;28;20032;-93
2023/10/18 00:11:28;;;;;;;12.93;10.30;;;8.50;99.90;;;;;;5039070;28;20100;-89
2023/10/18 00:13:54;;;;;;;13.13;10.77;;;8.50;99.90;;;;;;5060164;28;20005;-88
2023/10/18 00:16:22;;;;;;;13.98;10.73;;;8.50;99.90;;;;;;5060009;28;20565;-90
2023/10/18 00:18:52;;;;;;;13.40;10.98;;;8.50;99.90;;;;;;5059934;28;20021;-90
2023/10/18 00:21:18;;;;;;;13.23;10.80;;;8.50;99.90;;;;;;5059846;28;20009;-88
2023/10/18 00:23:44;;;;;;;13.93;10.90;;;8.40;99.90;;;;;;5046544;28;20129;-88
2023/10/18 00:26:11;;;;;;;12.77;10.40;;;8.40;99.90;;;;;;5049356;28;20036;-89
2023/10/18 00:28:37;;;;;;;14.07;10.43;;;8.40;99.90;;;;;;5072129;28;20035;-87
2023/10/18 00:31:15;;;;;;;13.20;10.73;;;8.40;99.90;;;;;;5058466;28;20028;-90
2023/10/18 00:33:40;;;;;;;12.27;9.68;;;8.40;99.90;;;;;;5051004;28;20107;-90
2023/10/18 00:38:58;;;;;;;13.05;10.75;;;8.40;99.90;;;;;;5033397;28;20124;-89
2023/10/18 00:41:32;;;;;;;12.75;10.60;;;8.40;99.90;;;;;;5040613;28;20016;-88
2023/10/18 00:43:59;;;;;;;12.75;10.25;;;8.40;99.90;;;;;;5040563;28;20025;-89
2023/10/18 00:46:26;;;;;;;11.05;9.40;;;8.40;99.90;;;;;;5023355;28;20113;-89
2023/10/18 00:48:52;;;;;;;13.40;11.23;;;8.30;99.90;;;;;;5059200;28;20021;-90
2023/10/18 00:52:35;;;;;;;13.70;11.30;;;8.30;99.90;;;;;;5057394;28;20400;-89
2023/10/18 00:54:53;;;;;;;14.35;10.85;;;8.30;99.90;;;;;;5037346;28;20051;-88
2023/10/18 00:57:24;;;;;;;14.73;11.23;;;8.20;99.90;;;;;;5040019;28;20057;-89
2023/10/18 00:59:52;;;;;;;12.98;10.57;;;8.20;99.90;;;;;;5040579;28;20096;-89
2023/10/18 01:02:28;;;;;;;12.48;10.70;;;8.20;99.90;;;;;;5042211;28;20025;-89
2023/10/18 01:04:54;;;;;;;12.82;10.43;;;8.20;99.90;;;;;;5071058;28;20021;-87
2023/10/18 01:07:23;;;;;;;12.55;10.65;;;8.20;99.90;;;;;;5040095;28;20120;-89
2023/10/18 01:09:53;;;;;;;12.80;10.25;;;8.20;99.90;;;;;;5039984;28;20021;-88
2023/10/18 01:12:20;;;;;;;12.63;10.48;;;8.20;99.90;;;;;;5039212;28;20061;-89
2023/10/18 01:14:48;;;;;;;13.93;11.02;;;8.20;99.90;;;;;;5022989;28;20422;-88
2023/10/18 01:17:16;;;;;;;12.13;9.73;;;8.20;99.90;;;;;;5023385;28;20147;-89
2023/10/18 01:19:41;;;;;;;13.98;10.48;;;8.10;99.90;;;;;;5056375;28;20025;-88
2023/10/18 01:22:07;;;;;;;13.60;11.57;;;8.10;99.90;;;;;;5037586;28;20025;-88
2023/10/18 01:24:38;;;;;;;11.65;10.10;;;8.10;99.90;;;;;;5026743;28;20037;-88
2023/10/18 01:27:04;;;;;;;14.60;9.98;;;8.10;99.90;;;;;;5019881;28;20030;-88
2023/10/18 01:29:33;;;;;;;13.50;10.80;;;8.10;99.90;;;;;;5039400;28;20025;-89
2023/10/18 01:32:02;;;;;;;15.00;11.52;;;8.10;99.90;;;;;;5039948;28;20025;-90
2023/10/18 01:34:31;;;;;;;14.40;11.52;;;8.10;99.90;;;;;;5057003;28;20031;-89
2023/10/18 01:37:00;;;;;;;13.02;10.68;;;8.00;99.90;;;;;;5023500;28;20060;-91
2023/10/18 01:39:29;;;;;;;13.88;10.93;;;8.00;99.90;;;;;;5023578;28;20025;-89
2023/10/18 01:41:55;;;;;;;12.18;10.23;;;8.00;99.90;;;;;;5048066;28;20019;-88
2023/10/18 01:44:30;;;;;;;14.93;10.95;;;8.00;99.90;;;;;;5082581;28;20029;-89
2023/10/18 01:47:07;;;;;;;11.82;10.32;;;8.00;99.90;;;;;;5100640;28;20013;-88
2023/10/18 01:49:54;;;;;;;12.43;10.57;;;8.00;99.90;;;;;;5085967;28;20084;-88
2023/10/18 01:52:20;;;;;;;13.43;10.48;;;8.00;99.90;;;;;;5046040;28;20048;-89
2023/10/18 01:54:52;;;;;;;10.80;9.35;;;7.90;99.90;;;;;;5022713;28;20025;-88
2023/10/18 01:57:18;;;;;;;13.98;10.88;;;8.00;99.90;;;;;;5062382;28;20044;-89
2023/10/18 01:59:43;;;;;;;13.50;10.32;;;7.90;99.90;;;;;;5039447;28;20091;-89
2023/10/18 02:02:13;;;;;;;12.40;9.57;;;7.90;99.90;;;;;;5039108;28;20538;-89
2023/10/18 02:04:42;;;;;;;13.05;9.70;;;7.90;99.90;;;;;;5039658;28;20025;-88
2023/10/18 02:07:08;;;;;;;13.10;9.88;;;7.90;99.90;;;;;;5038679;28;20469;-90
2023/10/18 02:09:52;;;;;;;12.98;9.95;;;7.90;99.90;;;;;;5038823;28;20071;-89
2023/10/18 02:12:21;;;;;;;12.23;9.75;;;7.90;99.90;;;;;;5048943;28;20032;-89
2023/10/18 02:14:51;;;;;;;12.65;10.07;;;8.00;99.90;;;;;;5022569;28;20083;-89
2023/10/18 02:17:18;;;;;;;14.02;9.90;;;8.00;99.90;;;;;;5038113;28;20465;-89
2023/10/18 02:19:44;;;;;;;13.02;9.75;;;8.00;99.90;;;;;;5022343;28;20040;-89
2023/10/18 02:22:16;;;;;;;13.57;11.10;;;7.90;99.90;;;;;;5038541;28;20029;-89
2023/10/18 02:24:49;;;;;;;15.25;11.55;;;7.90;99.90;;;;;;5038694;28;20092;-89
2023/10/18 02:27:19;;;;;;;14.40;11.40;;;7.90;99.90;;;;;;5037032;28;20166;-88
2023/10/18 02:29:46;;;;;;;13.30;10.52;;;7.90;99.90;;;;;;5056285;28;20103;-87
2023/10/18 02:32:23;;;;;;;13.15;10.65;;;7.90;99.90;;;;;;5024021;28;20345;-90
2023/10/18 02:34:52;;;;;;;14.60;10.52;;;7.90;99.90;;;;;;5038452;28;20066;-88
2023/10/18 02:37:19;;;;;;;14.75;10.70;;;7.80;99.90;;;;;;5020384;28;20107;-89
2023/10/18 02:39:49;;;;;;;13.20;10.63;;;7.80;99.90;;;;;;5040034;28;20047;-88
2023/10/18 02:42:16;;;;;;;10.85;9.63;;;7.80;99.90;;;;;;5038186;28;20025;-89
2023/10/18 02:44:45;;;;;;;15.93;11.35;;;7.80;99.90;;;;;;5024880;28;20194;-88
2023/10/18 02:47:16;;;;;;;13.50;10.68;;;7.80;99.90;;;;;;5040910;28;20140;-89
2023/10/18 02:49:46;;;;;;;14.07;11.73;;;7.80;99.90;;;;;;5070060;28;20029;-90
2023/10/18 02:52:16;;;;;;;12.52;10.07;;;7.80;99.90;;;;;;5056224;28;20028;-90
2023/10/18 02:54:42;;;;;;;14.65;11.00;;;7.80;99.90;;;;;;5022089;28;20025;-90
2023/10/18 02:57:09;;;;;;;16.13;11.52;;;7.80;99.90;;;;;;5056013;28;20057;-89
2023/10/18 02:59:35;;;;;;;13.27;10.95;;;7.80;99.90;;;;;;5021803;28;20119;-88
2023/10/18 03:02:09;;;;;;;13.48;10.68;;;7.70;99.90;;;;;;5021516;28;20052;-89
2023/10/18 03:04:37;;;;;;;13.27;11.40;;;7.70;99.90;;;;;;5041524;28;20032;-89
2023/10/18 03:07:08;;;;;;;14.75;10.95;;;7.70;99.90;;;;;;5026855;28;20036;-88
2023/10/18 03:12:02;;;;;;;13.38;10.70;;;7.60;99.90;;;;;;5070493;28;20027;-89
2023/10/18 03:14:39;;;;;;;14.88;10.73;;;7.60;99.90;;;;;;5061195;28;20013;-87
2023/10/18 03:17:18;;;;;;;14.90;11.80;;;7.60;99.90;;;;;;5057411;28;20024;-89
2023/10/18 03:19:44;;;;;;;14.80;11.77;;;7.60;99.90;;;;;;5037645;28;20041;-89
2023/10/18 03:22:11;;;;;;;15.52;12.00;;;7.60;99.90;;;;;;5057038;28;20043;-90
2023/10/18 03:24:37;;;;;;;14.00;11.55;;;7.50;99.90;;;;;;5037596;28;20120;-89
2023/10/18 03:27:08;;;;;;;13.23;11.02;;;7.50;99.90;;;;;;5024830;28;20025;-91
2023/10/18 03:29:37;;;;;;;15.57;11.70;;;7.50;99.90;;;;;;5021225;28;20033;-89
2023/10/18 03:32:06;;;;;;;13.82;11.15;;;7.50;99.90;;;;;;5037122;28;20025;-88
2023/10/18 03:34:43;;;;;;;16.40;11.88;;;7.50;99.90;;;;;;5048154;28;20540;-88
2023/10/18 03:37:18;;;;;;;17.80;12.13;;;7.40;99.90;;;;;;5041980;28;20029;-89
2023/10/18 03:39:47;;;;;;;13.15;10.30;;;7.40;99.90;;;;;;5052119;28;20056;-88
2023/10/18 03:42:26;;;;;;;16.83;11.43;;;7.40;99.90;;;;;;5073219;28;20478;-89
2023/10/18 03:44:52;;;;;;;12.52;10.95;;;7.40;99.90;;;;;;5022553;28;20036;-90
2023/10/18 03:47:24;;;;;;;15.60;11.60;;;7.40;99.90;;;;;;5036921;28;20029;-88
2023/10/18 03:49:53;;;;;;;14.88;11.35;;;7.40;99.90;;;;;;5037470;28;20111;-88
2023/10/18 03:52:22;;;;;;;14.15;11.30;;;7.40;99.90;;;;;;5032275;28;20106;-88
2023/10/18 03:57:29;;;;;;;17.40;12.15;;;7.40;99.90;;;;;;5064624;28;20398;-91
2023/10/18 03:59:58;;;;;;;14.40;11.40;;;7.50;99.90;;;;;;5036728;28;20028;-88
2023/10/18 04:02:27;;;;;;;14.60;11.20;;;7.50;99.90;;;;;;5036810;28;20027;-91
2023/10/18 04:05:00;;;;;;;15.13;11.68;;;7.40;99.90;;;;;;5036549;28;20060;-89
2023/10/18 04:07:29;;;;;;;14.25;11.48;;;7.40;99.90;;;;;;5036521;28;20020;-89
2023/10/18 04:10:06;;;;;;;15.27;11.18;;;7.40;99.90;;;;;;5067591;28;20111;-88
2023/10/18 04:12:33;;;;;;;15.38;11.75;;;7.40;99.90;;;;;;5051840;28;20025;-88
2023/10/18 04:15:09;;;;;;;17.10;12.10;;;7.40;99.90;;;;;;5057027;28;20017;-89
2023/10/18 04:22:46;;;;;;;15.38;11.38;;;7.50;99.90;;;;;;5040028;28;20029;-90
2023/10/18 04:25:25;;;;;;;15.32;11.45;;;7.40;99.90;;;;;;5037068;28;20428;-90
2023/10/18 04:27:52;;;;;;;14.45;10.57;;;7.40;99.90;;;;;;5022035;28;20055;-90
2023/10/18 04:30:22;;;;;;;14.23;10.45;;;7.40;99.90;;;;;;5038166;28;20036;-88
2023/10/18 04:35:40;;;;;;;14.75;11.40;;;7.40;99.90;;;;;;5016985;28;20094;-89
2023/10/18 04:38:21;;;;;;;13.23;10.55;;;7.40;99.90;;;;;;5037366;28;20028;-89
2023/10/18 04:41:32;;;;;;;14.30;11.50;;;7.40;99.90;;;;;;5025900;28;20026;-88
2023/10/18 04:43:42;;;;;;;13.10;10.25;;;7.40;99.90;;;;;;5046143;28;20052;-89
2023/10/18 04:46:14;;;;;;;12.40;10.27;;;7.50;99.90;;;;;;5026965;28;20392;-89
2023/10/18 04:51:44;;;;;;;14.82;10.45;;;7.60;99.90;;;;;;5072747;28;20118;-89
2023/10/18 04:54:15;;;;;;;14.50;11.10;;;7.60;99.90;;;;;;5035831;28;20025;-87
2023/10/18 04:56:44;;;;;;;12.48;9.82;;;7.60;99.90;;;;;;5036773;28;20111;-87
2023/10/18 05:04:31;;;;;;;12.23;10.10;;;7.50;99.90;;;;;;5044346;28;20043;-88
2023/10/18 05:07:04;;;;;;;12.35;9.55;;;7.60;99.90;;;;;;5026489;28;20064;-88
2023/10/18 05:09:34;;;;;;;13.90;10.85;;;7.60;99.90;;;;;;5008456;28;20064;-87
2023/10/18 05:12:16;;;;;;;13.70;10.38;;;7.60;99.90;;;;;;5036574;28;20473;-89
2023/10/18 05:14:43;;;;;;;13.32;9.93;;;7.50;99.90;;;;;;5024837;28;20461;-89
2023/10/18 05:17:21;;;;;;;13.48;10.65;;;7.50;99.90;;;;;;5036415;28;20381;-88
2023/10/18 05:19:51;;;;;;;11.90;9.95;;;7.60;99.90;;;;;;5039106;28;20496;-89
2023/10/18 05:22:19;;;;;;;14.68;10.32;;;7.60;99.90;;;;;;5036003;28;20075;-88
2023/10/18 05:24:55;;;;;;;12.63;9.95;;;7.60;99.90;;;;;;5036328;28;20116;-88
2023/10/18 05:27:27;;;;;;;14.55;10.90;;;7.50;99.90;;;;;;5041506;28;20037;-88
2023/10/18 05:29:59;;;;;;;12.95;10.07;;;7.60;99.90;;;;;;5055905;28;20021;-87
2023/10/18 05:37:50;;;;;;;12.65;10.20;;;7.50;99.90;;;;;;5036459;28;20044;-88
2023/10/18 05:43:03;;;;;;;13.35;10.27;;;7.50;99.90;;;;;;5044939;28;19974;-88
2023/10/18 05:45:32;;;;;;;16.00;11.05;;;7.50;99.90;;;;;;5020851;28;20536;-87
2023/10/18 05:48:12;;;;;;;15.68;12.10;;;7.40;99.90;;;;;;5020041;28;20051;-87
2023/10/18 05:50:45;;;;;;;13.63;10.13;;;7.40;99.90;;;;;;5035691;28;20021;-88
2023/10/18 05:53:12;;;;;;;14.48;11.00;;;7.40;99.90;;;;;;5020328;28;20454;-87
2023/10/18 05:55:40;;;;;;;14.48;11.00;;;7.40;99.90;;;;;;5035677;28;20033;-88
2023/10/18 05:58:06;;;;;;;12.93;10.25;;;7.40;99.90;;;;;;5007352;28;20077;-87
2023/10/18 06:00:33;;;;;;;14.02;11.25;;;7.40;99.90;;;;;;5016285;28;20458;-88
2023/10/18 06:03:02;;;;;;;16.85;12.05;;;7.40;99.90;;;;;;5016250;28;20108;-88
2023/10/18 06:05:33;;;;;;;15.30;11.13;;;7.40;99.90;;;;;;5025785;28;20070;-87
2023/10/18 06:07:59;;;;;;;;;;;7.40;99.90;;;;;;5053715;28;20077;-88
2023/10/18 06:10:26;;;;;;;13.40;9.82;;;7.40;99.90;;;;;;5059032;28;19900;-86
2023/10/18 06:13:05;;;;;;;14.27;11.25;;;7.30;99.90;;;;;;5017726;28;20033;-87
2023/10/18 06:15:44;;;;;;;17.17;11.50;;;7.30;99.90;;;;;;5031680;28;20032;-87
2023/10/18 06:18:16;;;;;;;14.07;10.15;;;7.30;99.90;;;;;;5001356;28;20088;-88
2023/10/18 06:20:44;;;;;;;12.50;10.45;;;7.30;99.90;;;;;;5019944;28;20049;-87
2023/10/18 06:25:57;;;;;;;12.70;10.35;;;7.40;99.90;;;;;;5017673;28;20047;-88
2023/10/18 06:28:24;;;;;;;12.90;9.13;;;7.40;99.90;;;;;;5015546;28;20021;-88
2023/10/18 06:30:52;;;;;;;12.23;9.23;;;7.40;99.90;;;;;;5002474;28;20041;-87
2023/10/18 06:33:21;;;;;;;13.52;9.30;;;7.50;99.90;;;;;;4996364;28;20085;-87
2023/10/18 06:35:53;;;;;;;12.05;10.00;;;7.60;99.90;;;;;;4994381;28;20141;-86
2023/10/18 06:38:25;;;;;;;12.52;10.05;;;7.50;99.90;;;;;;5023208;28;20022;-89
2023/10/18 06:41:02;;;;;;;14.55;11.15;;;7.50;99.90;;;;;;5025058;28;20026;-88
2023/10/18 06:43:29;;;;;;;13.77;11.00;;;7.40;99.90;;;;;;5006390;28;20526;-87
2023/10/18 06:45:55;;;;;;;13.80;10.07;;;7.40;99.90;;;;;;4985789;28;20027;-87
2023/10/18 06:48:28;;;;;;;12.52;10.25;;;7.40;99.90;;;;;;5024502;28;20033;-88
2023/10/18 06:50:54;;;;;;;12.82;10.15;;;7.40;99.90;;;;;;5018735;28;20443;-89
2023/10/18 06:53:22;;;;;;;12.82;10.07;;;7.40;99.90;;;;;;5019616;28;20496;-88
2023/10/18 06:55:58;;;;;;;13.70;10.48;;;7.40;99.90;;;;;;5014219;28;20034;-89
2023/10/18 07:01:00;;;;;;;15.07;10.63;;;7.40;99.90;;;;;;5054638;28;20044;-89
2023/10/18 07:03:29;;;;;;;13.85;10.30;;;7.40;99.90;;;;;;5050285;28;20453;-88
2023/10/18 07:06:04;;;;;;;13.77;10.43;;;7.40;99.90;;;;;;5034178;28;20194;-88
2023/10/18 07:08:33;;;;;;;17.20;10.70;;;7.40;99.90;;;;;;5035942;28;20108;-88
2023/10/18 07:11:07;;;;;;;13.27;10.27;;;7.40;99.90;;;;;;5034714;28;20029;-88
2023/10/18 07:13:33;;;;;;;13.40;9.90;;;7.40;99.90;;;;;;5050462;28;20025;-89
2023/10/18 07:16:14;;;;;;;12.38;10.15;;;7.40;99.90;;;;;;5054237;28;20037;-88
2023/10/18 07:18:39;;;;;;;14.18;9.77;;;7.50;99.90;;;;;;5024020;28;20076;-89
2023/10/18 07:21:09;;;;;;;12.55;9.45;;;7.50;99.90;;;;;;5014820;28;20042;-88
2023/10/18 07:23:37;;;;;;;13.55;9.82;;;7.60;99.90;;;;;;5024118;28;20133;-88
2023/10/18 07:26:13;;;;;;;11.32;9.57;;;7.60;99.90;;;;;;5034473;28;20059;-89
2023/10/18 07:28:40;;;;;;;13.45;9.95;;;7.60;99.90;;;;;;5044242;28;20096;-88
2023/10/18 07:31:10;;;;;;;12.38;9.20;;;7.70;99.90;;;;;;5047019;28;20009;-88
2023/10/18 07:33:42;;;;;;;12.52;9.20;;;7.70;99.90;;;;;;5066105;28;20010;-88
2023/10/18 07:36:12;;;;;;;10.38;8.85;;;7.80;99.90;;;;;;5055140;28;20092;-87
2023/10/18 07:38:47;;;;;;;15.95;11.20;;;7.90;99.90;;;;;;5035330;28;20389;-88
2023/10/18 07:41:18;;;;;;;14.70;10.00;;;7.90;99.90;;;;;;5031046;28;20029;-88
2023/10/18 07:43:44;;;;;;;11.07;9.20;;;7.90;99.90;;;;;;5036273;28;20030;-89
2023/10/18 07:46:16;;;;;;;11.27;9.50;;;7.90;99.90;;;;;;5015193;28;20500;-88
2023/10/18 07:48:48;;;;;;;12.43;9.98;;;7.90;99.90;;;;;;5033713;28;20013;-88
2023/10/18 07:51:23;;;;;;;15.50;9.77;;;7.90;99.90;;;;;;5034741;28;20500;-88
2023/10/18 07:53:53;;;;;;;11.88;10.00;;;8.00;99.90;;;;;;5017507;28;20026;-87
2023/10/18 07:56:29;;;;;;;12.35;9.30;;;8.00;99.90;;;;;;5017759;28;20536;-88
2023/10/18 07:59:27;;;;;;;12.00;9.32;;;8.00;99.90;;;;;;5051133;28;20029;-87
2023/10/18 08:01:52;;;;;;;12.10;9.43;;;8.00;99.90;;;;;;5058725;28;20059;-86
2023/10/18 08:04:20;;;;;;;12.23;9.20;;;8.10;99.90;;;;;;5038124;28;20029;-88
2023/10/18 08:06:49;;;;;;;9.68;8.05;;;8.10;99.90;;;;;;5036371;28;20028;-88
2023/10/18 08:09:28;;;;;;;11.02;8.43;;;8.20;99.90;;;;;;5020044;28;20080;-88
2023/10/18 08:12:05;;;;;;;10.85;8.43;;;8.30;99.90;;;;;;5036937;28;20021;-88
2023/10/18 08:14:35;;;;;;;11.00;7.93;;;8.30;99.90;;;;;;5043534;28;20370;-87
2023/10/18 08:17:29;;;;;;;9.48;8.18;;;8.40;99.90;;;;;;5053272;28;20427;-88
2023/10/18 08:20:29;;;;;;;10.20;8.27;;;8.40;99.90;;;;;;5034085;28;20122;-88
2023/10/18 08:22:44;;;;;;;11.68;10.40;;;8.50;99.90;;;;;;5041511;28;20170;-89
2023/10/18 08:25:21;;;;;;;12.13;9.43;;;8.50;99.90;;;;;;5036534;28;20025;-88
2023/10/18 08:27:51;;;;;;;10.70;8.55;;;8.60;99.90;;;;;;5053694;28;20025;-88
2023/10/18 08:33:03;;;;;;;12.02;8.80;;;8.70;99.90;;;;;;5033906;28;20044;-87
2023/10/18 08:35:29;;;;;;;10.52;8.15;;;8.70;99.90;;;;;;5010001;28;20021;-89
2023/10/18 08:37:55;;;;;;;10.57;8.25;;;8.70;99.90;;;;;;5024640;28;20051;-88
2023/10/18 08:41:05;;;;;;;10.25;7.47;;;8.80;99.90;;;;;;5016575;28;20029;-88
2023/10/18 08:43:32;;;;;;;7.90;6.82;;;8.90;99.90;;;;;;5039316;28;20391;-87
2023/10/18 08:45:59;;;;;;;10.90;8.05;;;8.90;99.90;;;;;;5039495;28;20071;-88
2023/10/18 08:48:29;;;;;;;9.32;7.43;;;9.00;99.90;;;;;;5040440;28;20029;-89
2023/10/18 08:50:58;;;;;;;9.73;8.10;;;9.00;99.90;;;;;;5005352;28;20029;-88
2023/10/18 08:53:31;;;;;;;9.95;8.00;;;9.10;99.90;;;;;;5037339;28;20465;-89
2023/10/18 08:55:57;;;;;;;8.60;7.70;;;9.20;99.90;;;;;;5041909;28;20033;-87
2023/10/18 08:58:30;;;;;;;11.15;8.38;;;9.20;99.90;;;;;;5079591;28;20067;-87
2023/10/18 09:03:27;;;;;;;7.90;6.68;;;9.30;99.90;;;;;;5068222;28;20032;-88
2023/10/18 09:06:04;;;;;;;8.55;6.95;;;9.40;99.90;;;;;;5066946;28;20029;-90
2023/10/18 09:08:38;;;;;;;10.13;7.38;;;9.50;99.90;;;;;;5040722;28;20033;-88
2023/10/18 09:11:09;;;;;;;11.30;7.15;;;9.60;99.90;;;;;;5057661;28;20102;-89
2023/10/18 09:13:42;;;;;;;7.47;6.68;;;9.70;99.90;;;;;;5040302;28;20028;-89
2023/10/18 09:16:11;;;;;;;8.50;7.20;;;9.70;99.90;;;;;;5039396;28;20029;-87
2023/10/18 09:18:37;;;;;;;8.50;6.75;;;9.80;99.90;;;;;;5044932;28;20484;-88
2023/10/18 09:23:40;;;;;;;10.07;6.68;;;9.90;99.90;;;;;;5057559;28;20126;-88
2023/10/18 09:26:10;;;;;;;7.30;6.10;;;10.00;99.90;;;;;;5039324;28;20035;-89
2023/10/18 09:28:37;;;;;;;7.20;6.00;;;10.10;99.90;;;;;;5028247;28;20026;-89
2023/10/18 09:31:11;;;;;;;10.45;6.80;;;10.10;99.90;;;;;;5039879;28;20479;-88
2023/10/18 09:33:51;;;;;;;8.65;6.60;;;10.20;99.80;;;;;;5057252;28;20455;-89
2023/10/18 09:36:27;;;;;;;9.43;6.10;;;10.30;99.70;;;;;;5024055;28;20043;-88
2023/10/18 09:38:55;;;;;;;8.50;6.65;;;10.30;99.40;;;;;;5031175;28;20100;-89
2023/10/18 09:41:21;;;;;;;9.13;7.22;;;10.40;99.30;;;;;;5059078;28;20050;-89
2023/10/18 09:43:47;;;;;;;7.93;6.10;;;10.40;98.70;;;;;;5059291;28;20074;-90
2023/10/18 09:46:14;;;;;;;8.30;6.07;;;10.40;98.80;;;;;;5045582;28;20033;-88
2023/10/18 09:48:42;;;;;;;7.45;5.43;;;10.40;98.80;;;;;;5039596;28;20075;-89
2023/10/18 09:51:10;;;;;;;7.38;5.57;;;10.40;98.80;;;;;;5038974;28;20119;-89
2023/10/18 09:53:53;;;;;;;5.57;5.00;;;10.50;98.90;;;;;;5039253;28;20493;-90
2023/10/18 09:56:33;;;;;;;7.45;6.00;;;10.50;98.90;;;;;;5038099;28;20036;-89
2023/10/18 09:59:05;;;;;;;9.45;6.80;;;10.50;98.80;;;;;;5059105;28;20091;-88
2023/10/18 10:04:15;;;;;;;7.40;5.43;;;10.60;98.60;;;;;;5056415;28;20025;-89
2023/10/18 10:06:47;;;;;;;7.50;5.13;;;10.60;98.50;;;;;;5038951;28;20040;-87
2023/10/18 10:09:14;;;;;;;6.80;5.25;;;10.70;98.60;;;;;;5038959;28;20017;-88
2023/10/18 10:11:49;;;;;;;8.00;6.13;;;10.70;98.50;;;;;;5039103;28;20051;-89
2023/10/18 10:14:17;;;;;;;7.65;5.15;;;10.80;98.50;;;;;;5066125;28;20165;-90
2023/10/18 10:17:08;;;;;;;8.70;5.57;;;10.90;98.50;;;;;;5035988;28;20105;-87
2023/10/18 10:19:43;;;;;;;9.50;6.15;;;10.90;98.50;;;;;;5058733;28;20033;-89
2023/10/18 10:22:15;;;;;;;6.13;4.50;;;11.00;98.40;;;;;;5062554;28;20037;-88
2023/10/18 10:24:51;;;;;;;7.53;5.60;;;11.00;98.30;;;;;;5059916;28;20114;-89
2023/10/18 10:33:05;;;;;;;8.43;5.43;;;11.20;98.10;;;;;;4991397;28;20108;-88
2023/10/18 10:35:32;;;;;;;6.53;4.40;;;11.20;98.00;;;;;;5034736;28;20037;-88
2023/10/18 10:38:05;;;;;;;6.80;5.13;;;11.30;98.10;;;;;;5085952;28;20036;-87
2023/10/18 10:43:03;;;;;;;6.90;5.25;;;11.40;97.90;;;;;;5071609;28;20036;-88
2023/10/18 10:45:35;;;;;;;;;;;11.50;97.80;;;;;;5056846;28;20108;-88
2023/10/18 10:48:37;;;;;;;8.00;4.60;;;11.60;97.90;;;;;;5026223;28;19936;-88
2023/10/18 10:51:13;;;;;;;7.55;5.05;;;11.70;97.90;;;;;;5056696;28;20369;-89
2023/10/18 10:53:57;;;;;;;7.20;5.30;;;11.70;97.70;;;;;;5034954;28;20024;-88
2023/10/18 10:56:31;;;;;;;6.40;4.63;;;11.80;97.40;;;;;;5043013;28;20500;-89
2023/10/18 11:01:39;;;;;;;7.03;5.28;;;12.00;97.40;;;;;;5055904;28;20059;-89
2023/10/18 11:04:28;;;;;;;7.40;5.50;;;12.00;97.00;;;;;;5040200;28;20021;-88
2023/10/18 11:07:03;;;;;;;7.88;5.03;;;12.00;96.70;;;;;;5041409;28;20071;-89
2023/10/18 11:09:33;;;;;;;6.38;5.25;;;12.10;96.70;;;;;;5046117;28;20091;-88
2023/10/18 11:12:29;;;;;;;9.57;5.60;;;12.10;96.70;;;;;;5038166;28;20025;-88
2023/10/18 11:14:55;;;;;;;6.53;4.88;;;12.20;96.40;;;;;;5037412;28;20110;-89
2023/10/18 11:17:23;;;;;;;7.15;5.22;;;12.20;96.20;;;;;;5004269;28;20064;-88
2023/10/18 11:19:58;;;;;;;7.65;5.47;;;12.20;96.20;;;;;;5021297;28;20057;-89
2023/10/18 11:22:29;;;;;;;6.88;4.80;;;12.20;96.30;;;;;;5018880;28;20029;-88
2023/10/18 11:24:56;;;;;;;;;;;12.30;96.40;;;;;;5061525;28;20023;-87
2023/10/18 11:27:33;;;;;;;6.40;4.82;;;12.40;96.20;;;;;;5054093;28;19916;-87
2023/10/18 11:30:22;;;;;;;8.63;5.10;;;12.40;96.20;;;;;;5037247;28;20025;-86
2023/10/18 11:32:54;;;;;;;5.88;5.10;;;12.50;96.10;;;;;;5040022;28;20029;-89
2023/10/18 11:35:48;;;;;;;6.65;4.53;;;12.50;96.00;;;;;;5017311;28;20079;-88
2023/10/18 11:38:13;;;;;;;5.80;4.60;;;12.50;96.10;;;;;;5038859;28;20077;-89
2023/10/18 11:40:48;;;;;;;5.65;4.63;;;12.60;96.20;;;;;;5020503;28;20031;-88
2023/10/18 11:43:27;;;;;;;6.63;5.03;;;12.70;96.00;;;;;;5037049;28;20063;-89
2023/10/18 11:46:09;;;;;;;5.25;4.47;;;12.70;96.00;;;;;;5033809;28;20120;-88
2023/10/18 11:48:36;;;;;;;4.65;3.97;;;12.70;96.10;;;;;;5023435;28;20024;-88
2023/10/18 11:51:05;;;;;;;6.38;4.50;;;12.80;96.30;;;;;;5003927;28;20033;-90
2023/10/18 11:53:32;;;;;;;6.07;4.63;;;12.90;96.20;;;;;;5054713;28;20032;-88
2023/10/18 11:56:00;;;;;;;5.53;4.95;;;12.90;95.90;;;;;;5055248;28;20087;-89
2023/10/18 11:58:28;;;;;;;6.20;4.93;;;13.00;95.90;;;;;;5040298;28;20132;-87
2023/10/18 12:00:57;;;;;;;7.72;4.95;;;13.00;95.70;;;;;;5041216;28;20423;-87
2023/10/18 12:03:23;;;;;;;5.65;4.63;;;13.00;95.60;;;;;;5055576;28;20025;-86
2023/10/18 12:05:57;;;;;;;5.97;4.70;;;13.10;95.60;;;;;;5039164;28;20358;-88
2023/10/18 12:08:30;;;;;;;5.03;4.07;;;13.10;95.70;;;;;;5045209;28;20029;-88
2023/10/18 12:11:09;;;;;;;7.05;4.82;;;13.20;95.70;;;;;;5060274;28;20014;-88
2023/10/18 12:13:37;;;;;;;5.65;4.30;;;13.20;95.70;;;;;;5060719;28;20013;-88
2023/10/18 12:16:03;;;;;;;6.65;3.97;;;13.30;95.60;;;;;;5056733;28;20041;-88
2023/10/18 12:18:29;;;;;;;5.00;4.25;;;13.30;95.60;;;;;;5039037;28;20021;-88
2023/10/18 12:20:55;;;;;;;7.30;4.65;;;13.40;95.70;;;;;;5045754;28;20029;-89
2023/10/18 12:23:21;;;;;;;9.55;5.13;;;13.40;95.40;;;;;;5049068;28;20037;-88
2023/10/18 12:25:51;;;;;;;4.72;4.20;;;13.50;95.40;;;;;;5065407;28;20020;-88
2023/10/18 12:28:27;;;;;;;6.72;5.18;;;13.50;95.60;;;;;;5041027;28;20029;-89
2023/10/18 12:30:54;;;;;;;5.63;4.78;;;13.60;95.50;;;;;;5046334;28;20167;-89
2023/10/18 12:33:25;;;;;;;5.72;4.25;;;13.70;95.40;;;;;;5045779;28;20160;-88
2023/10/18 12:35:51;;;;;;;5.88;4.38;;;13.70;95.30;;;;;;5045007;28;20029;-89
2023/10/18 12:38:30;;;;;;;4.53;3.63;;;13.70;95.40;;;;;;5053848;28;20020;-89
2023/10/18 12:40:58;;;;;;;5.38;4.10;;;13.70;95.40;;;;;;5083141;28;20103;-88
2023/10/18 12:43:25;;;;;;;5.55;4.00;;;13.80;95.40;;;;;;5043637;28;20469;-89
2023/10/18 12:45:51;;;;;;;5.28;4.05;;;13.80;95.40;;;;;;5044925;28;20066;-89
2023/10/18 12:48:24;;;;;;;5.13;4.07;;;13.90;95.30;;;;;;5045432;28;20025;-89
2023/10/18 12:50:53;;;;;;;4.88;3.72;;;13.90;95.20;;;;;;5045109;28;20380;-88
2023/10/18 12:55:58;;;;;;;5.72;4.22;;;13.90;94.80;;;;;;5062609;28;20033;-88
2023/10/18 12:58:31;;;;;;;6.78;4.20;;;13.90;94.90;;;;;;5049897;28;20040;-89
2023/10/18 13:01:10;;;;;;;7.65;4.68;;;13.90;94.90;;;;;;5064905;28;20119;-88
2023/10/18 13:03:44;;;;;;;4.45;3.40;;;13.90;94.60;;;;;;5052321;28;20523;-89
2023/10/18 13:06:16;;;;;;;4.65;3.92;;;14.00;95.00;;;;;;5029131;28;20033;-87
2023/10/18 13:09:29;;;;;;;6.70;3.70;;;14.00;94.80;;;;;;5062354;28;20095;-88
2023/10/18 13:14:13;;;;;;;4.70;4.15;;;14.00;94.80;;;;;;5045002;28;20041;-89
2023/10/18 13:16:40;;;;;;;6.70;4.45;;;14.00;94.50;;;;;;5052620;28;20024;-88
2023/10/18 13:19:09;;;;;;;4.50;4.03;;;14.00;94.20;;;;;;5046867;28;20037;-89
2023/10/18 13:21:34;;;;;;;4.38;3.50;;;14.00;94.40;;;;;;5054819;28;20458;-90
2023/10/18 13:24:16;;;;;;;6.80;4.07;;;14.00;94.50;;;;;;5043651;28;20040;-88
2023/10/18 13:26:46;;;;;;;5.55;4.05;;;14.00;94.50;;;;;;5029097;28;20025;-89
2023/10/18 13:31:57;;;;;;;5.32;4.07;;;14.10;94.40;;;;;;5057300;28;20025;-90
2023/10/18 13:34:24;;;;;;;4.97;3.80;;;14.10;94.10;;;;;;5051765;28;20037;-89
2023/10/18 13:36:59;;;;;;;5.00;3.67;;;14.00;94.10;;;;;;5047525;28;20388;-89
2023/10/18 13:39:27;;;;;;;4.95;3.70;;;14.10;94.20;;;;;;5008282;28;20461;-87
2023/10/18 13:41:53;;;;;;;5.88;3.80;;;14.10;94.20;;;;;;5057551;28;20351;-87
2023/10/18 13:44:23;;;;;;;4.72;4.00;;;14.10;94.30;;;;;;5039834;28;20124;-87
2023/10/18 13:46:56;;;;;;;4.60;3.70;;;14.10;94.40;;;;;;5060229;28;20077;-88
2023/10/18 13:49:24;;;;;;;5.18;3.33;;;14.10;94.50;;;;;;5066671;28;20054;-86
2023/10/18 13:51:53;;;;;;;5.68;3.63;;;14.10;94.50;;;;;;5083154;28;20100;-87
2023/10/18 13:54:20;;;;;;;6.03;3.75;;;14.20;94.50;;;;;;5083335;28;20012;-88
2023/10/18 13:56:47;;;;;;;5.53;3.65;;;14.20;94.40;;;;;;5066810;28;20033;-90
2023/10/18 13:59:13;;;;;;;4.80;3.85;;;14.20;94.40;;;;;;5067918;28;20009;-86
2023/10/18 14:01:40;;;;;;;5.57;3.78;;;14.20;94.30;;;;;;5039263;28;20025;-88
2023/10/18 14:04:08;;;;;;;5.80;4.05;;;14.20;94.20;;;;;;5038795;28;20119;-88
2023/10/18 14:06:34;;;;;;;5.53;4.22;;;14.20;94.20;;;;;;5048887;28;20484;-89
2023/10/18 14:09:10;;;;;;;7.25;3.92;;;14.20;94.10;;;;;;5038646;28;20036;-87
2023/10/18 14:11:39;;;;;;;4.47;3.42;;;14.20;93.80;;;;;;5038542;28;20350;-87